createdAt,value
2017-08-04T00:00:41.341Z,0
2017-08-04T00:01:44.474Z,0
2017-08-04T00:02:46.973Z,0
2017-08-04T00:03:49.430Z,0
2017-08-04T00:04:52.561Z,0
2017-08-04T00:05:55.022Z,0
2017-08-04T00:06:57.472Z,0
2017-08-04T00:07:59.925Z,0
2017-08-04T00:09:02.382Z,0
2017-08-04T00:10:05.872Z,0
2017-08-04T00:11:08.681Z,0
2017-08-04T00:12:11.134Z,0
2017-08-04T00:13:13.596Z,0
2017-08-04T00:14:16.044Z,0
2017-08-04T00:15:19.517Z,0
2017-08-04T00:16:21.972Z,0
2017-08-04T00:17:25.113Z,0
2017-08-04T00:18:27.577Z,0
2017-08-04T00:19:30.369Z,0
2017-08-04T00:20:32.819Z,0
2017-08-04T00:21:35.273Z,0
2017-08-04T00:22:38.438Z,0
2017-08-04T00:23:41.246Z,0
2017-08-04T00:24:44.372Z,0
2017-08-04T00:25:46.820Z,0
2017-08-04T00:26:49.264Z,0
2017-08-04T00:27:52.063Z,0
2017-08-04T00:28:54.842Z,0
2017-08-04T00:29:57.643Z,0
2017-08-04T00:31:00.114Z,0
2017-08-04T00:32:02.933Z,0
2017-08-04T00:33:06.054Z,0
2017-08-04T00:34:08.525Z,0
2017-08-04T00:35:11.319Z,0
2017-08-04T00:36:13.757Z,0
2017-08-04T00:37:16.217Z,0
2017-08-04T00:38:18.994Z,0
2017-08-04T00:39:21.792Z,0
2017-08-04T00:40:24.251Z,0
2017-08-04T00:41:26.692Z,0
2017-08-04T00:42:30.150Z,0
2017-08-04T00:43:32.620Z,0
2017-08-04T00:44:35.406Z,0
2017-08-04T00:45:37.848Z,0
2017-08-04T00:46:40.294Z,0
2017-08-04T00:47:43.090Z,0
2017-08-04T00:48:45.862Z,0
2017-08-04T00:49:48.313Z,0
2017-08-04T00:50:51.114Z,0
2017-08-04T00:51:53.562Z,0
2017-08-04T00:52:56.019Z,0
2017-08-04T00:53:58.813Z,0
2017-08-04T00:55:02.295Z,0
2017-08-04T00:56:05.435Z,0
2017-08-04T00:57:07.889Z,0
2017-08-04T00:58:10.322Z,0
2017-08-04T00:59:12.788Z,0
2017-08-04T01:00:15.237Z,0
2017-08-04T01:01:18.030Z,0
2017-08-04T01:02:20.826Z,0
2017-08-04T01:03:23.610Z,0
2017-08-04T01:04:26.397Z,0
2017-08-04T01:05:28.846Z,0
2017-08-04T01:06:31.659Z,0
2017-08-04T01:07:34.141Z,0
2017-08-04T01:08:36.601Z,0
2017-08-04T01:09:39.049Z,0
2017-08-04T01:10:42.519Z,0
2017-08-04T01:11:45.644Z,0
2017-08-04T01:12:48.107Z,0
2017-08-04T01:13:50.560Z,0
2017-08-04T01:14:53.014Z,0
2017-08-04T01:15:55.806Z,0
2017-08-04T01:16:58.603Z,0
2017-08-04T01:18:01.717Z,0
2017-08-04T01:19:04.843Z,0
2017-08-04T01:20:07.632Z,0
2017-08-04T01:21:10.419Z,0
2017-08-04T01:22:12.878Z,0
2017-08-04T01:23:15.680Z,0
2017-08-04T01:24:18.129Z,0
2017-08-04T01:25:20.577Z,0
2017-08-04T01:26:23.015Z,0
2017-08-04T01:27:25.471Z,0
2017-08-04T01:28:27.930Z,0
2017-08-04T01:29:30.393Z,0
2017-08-04T01:30:32.847Z,0
2017-08-04T01:31:35.292Z,0
2017-08-04T01:32:37.742Z,0
2017-08-04T01:33:40.191Z,0
2017-08-04T01:34:42.634Z,0
2017-08-04T01:35:45.117Z,0
2017-08-04T01:36:47.581Z,0
2017-08-04T01:37:50.038Z,0
2017-08-04T01:38:52.822Z,0
2017-08-04T01:39:55.622Z,0
2017-08-04T01:40:58.064Z,0
2017-08-04T01:42:00.516Z,0
2017-08-04T01:43:03.344Z,0
2017-08-04T01:44:06.135Z,0
2017-08-04T01:45:08.930Z,0
2017-08-04T01:46:11.390Z,0
2017-08-04T01:47:14.519Z,0
2017-08-04T01:48:16.963Z,0
2017-08-04T01:49:19.759Z,0
2017-08-04T01:50:22.893Z,0
2017-08-04T01:51:25.337Z,0
2017-08-04T01:52:27.795Z,0
2017-08-04T01:53:30.237Z,0
2017-08-04T01:54:33.021Z,0
2017-08-04T01:55:35.816Z,0
2017-08-04T01:56:38.954Z,0
2017-08-04T01:57:41.730Z,0
2017-08-04T01:58:44.879Z,0
2017-08-04T01:59:48.030Z,0
2017-08-04T02:00:50.534Z,0
2017-08-04T02:01:52.987Z,0
2017-08-04T02:02:55.451Z,0
2017-08-04T02:03:57.904Z,0
2017-08-04T02:05:00.381Z,0
2017-08-04T02:06:03.844Z,0
2017-08-04T02:07:06.972Z,0
2017-08-04T02:08:09.751Z,0
2017-08-04T02:09:12.540Z,0
2017-08-04T02:10:16.007Z,0
2017-08-04T02:11:18.810Z,0
2017-08-04T02:12:21.602Z,0
2017-08-04T02:13:24.044Z,0
2017-08-04T02:14:26.513Z,0
2017-08-04T02:15:29.651Z,0
2017-08-04T02:16:32.420Z,0
2017-08-04T02:17:35.212Z,0
2017-08-04T02:18:37.697Z,0
2017-08-04T02:19:40.511Z,0
2017-08-04T02:20:42.978Z,0
2017-08-04T02:21:45.758Z,0
2017-08-04T02:22:48.555Z,0
2017-08-04T02:23:51.693Z,0
2017-08-04T02:24:54.149Z,0
2017-08-04T02:25:56.607Z,0
2017-08-04T02:26:59.054Z,0
2017-08-04T02:28:01.495Z,0
2017-08-04T02:29:04.297Z,0
2017-08-04T02:30:06.744Z,0
2017-08-04T02:31:09.187Z,0
2017-08-04T02:32:11.663Z,0
2017-08-04T02:33:14.115Z,0
2017-08-04T02:34:16.582Z,0
2017-08-04T02:35:19.051Z,0
2017-08-04T02:36:21.493Z,0
2017-08-04T02:37:24.280Z,0
2017-08-04T02:38:27.083Z,0
2017-08-04T02:39:29.539Z,0
2017-08-04T02:40:32.333Z,0
2017-08-04T02:41:34.777Z,0
2017-08-04T02:42:37.581Z,0
2017-08-04T02:43:40.029Z,0
2017-08-04T02:44:43.512Z,0
2017-08-04T02:45:46.651Z,0
2017-08-04T02:46:49.780Z,0
2017-08-04T02:47:52.570Z,0
2017-08-04T02:48:55.356Z,0
2017-08-04T02:49:58.154Z,0
2017-08-04T02:51:00.609Z,0
2017-08-04T02:52:03.776Z,0
2017-08-04T02:53:06.591Z,4
2017-08-04T02:54:10.070Z,4
2017-08-04T02:55:12.849Z,4
2017-08-04T02:56:15.302Z,0
2017-08-04T02:57:17.753Z,4
2017-08-04T02:58:20.542Z,4
2017-08-04T02:59:23.001Z,4
2017-08-04T03:00:25.802Z,4
2017-08-04T03:01:28.936Z,8
2017-08-04T03:02:31.385Z,4
2017-08-04T03:03:33.833Z,8
2017-08-04T03:04:36.636Z,8
2017-08-04T03:05:39.085Z,12
2017-08-04T03:06:42.208Z,12
2017-08-04T03:07:44.651Z,12
2017-08-04T03:08:47.095Z,12
2017-08-04T03:09:49.551Z,16
2017-08-04T03:10:52.334Z,20
2017-08-04T03:11:55.449Z,20
2017-08-04T03:12:57.902Z,20
2017-08-04T03:14:00.348Z,28
2017-08-04T03:15:03.126Z,28
2017-08-04T03:16:05.921Z,36
2017-08-04T03:17:08.384Z,44
2017-08-04T03:18:10.852Z,48
2017-08-04T03:19:13.301Z,60
2017-08-04T03:20:15.737Z,68
2017-08-04T03:21:18.533Z,76
2017-08-04T03:22:21.314Z,88
2017-08-04T03:23:24.093Z,96
2017-08-04T03:24:26.886Z,108
2017-08-04T03:25:29.342Z,116
2017-08-04T03:26:31.813Z,132
2017-08-04T03:27:34.618Z,144
2017-08-04T03:28:37.415Z,160
2017-08-04T03:29:40.203Z,172
2017-08-04T03:30:42.994Z,188
2017-08-04T03:31:45.803Z,204
2017-08-04T03:32:48.937Z,220
2017-08-04T03:33:51.727Z,232
2017-08-04T03:34:54.176Z,244
2017-08-04T03:35:56.963Z,252
2017-08-04T03:36:59.423Z,260
2017-08-04T03:38:03.208Z,276
2017-08-04T03:39:05.663Z,292
2017-08-04T03:40:08.109Z,320
2017-08-04T03:41:10.895Z,348
2017-08-04T03:42:13.720Z,376
2017-08-04T03:43:16.168Z,404
2017-08-04T03:44:18.968Z,432
2017-08-04T03:45:22.098Z,468
2017-08-04T03:46:24.535Z,508
2017-08-04T03:47:27.342Z,548
2017-08-04T03:48:30.128Z,596
2017-08-04T03:49:32.906Z,640
2017-08-04T03:50:35.358Z,696
2017-08-04T03:51:37.804Z,744
2017-08-04T03:52:40.251Z,788
2017-08-04T03:53:42.723Z,832
2017-08-04T03:54:45.496Z,888
2017-08-04T03:55:47.945Z,912
2017-08-04T03:56:50.401Z,936
2017-08-04T03:57:53.185Z,984
2017-08-04T03:58:55.649Z,1020
2017-08-04T03:59:58.452Z,1064
2017-08-04T04:01:00.903Z,1116
2017-08-04T04:02:03.704Z,1136
2017-08-04T04:03:07.187Z,1180
2017-08-04T04:04:09.966Z,1232
2017-08-04T04:05:12.761Z,1172
2017-08-04T04:06:15.222Z,1156
2017-08-04T04:07:17.696Z,1240
2017-08-04T04:08:20.163Z,1276
2017-08-04T04:09:22.619Z,1308
2017-08-04T04:10:25.078Z,1356
2017-08-04T04:11:27.894Z,1416
2017-08-04T04:12:30.711Z,1496
2017-08-04T04:13:33.141Z,1508
2017-08-04T04:14:36.629Z,1580
2017-08-04T04:15:39.784Z,1652
2017-08-04T04:16:42.250Z,1712
2017-08-04T04:17:45.036Z,1644
2017-08-04T04:18:47.497Z,1592
2017-08-04T04:19:50.273Z,1812
2017-08-04T04:20:53.081Z,2004
2017-08-04T04:21:55.532Z,2136
2017-08-04T04:22:57.970Z,2236
2017-08-04T04:24:00.417Z,2296
2017-08-04T04:25:03.545Z,2236
2017-08-04T04:26:06.324Z,2284
2017-08-04T04:27:08.771Z,2424
2017-08-04T04:28:11.212Z,2460
2017-08-04T04:29:13.659Z,2488
2017-08-04T04:30:16.454Z,2536
2017-08-04T04:31:18.928Z,2620
2017-08-04T04:32:21.387Z,2712
2017-08-04T04:33:24.891Z,2792
2017-08-04T04:34:27.330Z,2896
2017-08-04T04:35:30.134Z,3064
2017-08-04T04:36:32.581Z,3296
2017-08-04T04:37:35.032Z,3456
2017-08-04T04:38:37.492Z,3624
2017-08-04T04:39:39.948Z,3752
2017-08-04T04:40:42.406Z,3852
2017-08-04T04:41:45.209Z,4108
2017-08-04T04:42:47.652Z,4360
2017-08-04T04:43:50.106Z,4596
2017-08-04T04:44:53.214Z,4904
2017-08-04T04:45:56.003Z,5220
2017-08-04T04:46:58.458Z,5504
2017-08-04T04:48:01.243Z,5696
2017-08-04T04:49:04.393Z,5772
2017-08-04T04:50:06.844Z,5744
2017-08-04T04:51:09.650Z,5680
2017-08-04T04:52:12.810Z,5468
2017-08-04T04:53:15.602Z,5320
2017-08-04T04:54:18.043Z,5268
2017-08-04T04:55:20.839Z,5220
2017-08-04T04:56:23.277Z,5032
2017-08-04T04:57:26.069Z,4712
2017-08-04T04:58:29.531Z,4480
2017-08-04T04:59:31.966Z,4420
2017-08-04T05:00:34.758Z,4288
2017-08-04T05:01:37.225Z,4440
2017-08-04T05:02:40.001Z,4596
2017-08-04T05:03:42.449Z,4560
2017-08-04T05:04:44.921Z,4420
2017-08-04T05:05:48.065Z,4252
2017-08-04T05:06:50.524Z,4148
2017-08-04T05:07:53.316Z,4236
2017-08-04T05:08:56.095Z,4316
2017-08-04T05:09:59.576Z,4404
2017-08-04T05:11:02.025Z,4368
2017-08-04T05:12:04.810Z,4276
2017-08-04T05:13:07.939Z,4144
2017-08-04T05:14:10.716Z,4128
2017-08-04T05:15:13.196Z,4452
2017-08-04T05:16:16.001Z,4868
2017-08-04T05:17:18.487Z,5500
2017-08-04T05:18:20.959Z,6416
2017-08-04T05:19:23.410Z,7348
2017-08-04T05:20:25.864Z,8980
2017-08-04T05:21:28.659Z,9792
2017-08-04T05:22:31.113Z,9540
2017-08-04T05:23:33.564Z,10140
2017-08-04T05:24:36.361Z,10604
2017-08-04T05:25:38.810Z,9840
2017-08-04T05:26:41.267Z,9348
2017-08-04T05:27:44.062Z,9396
2017-08-04T05:28:46.853Z,8820
2017-08-04T05:29:50.321Z,9628
2017-08-04T05:30:53.106Z,9132
2017-08-04T05:31:55.906Z,9156
2017-08-04T05:32:58.717Z,8988
2017-08-04T05:34:01.504Z,8400
2017-08-04T05:35:04.309Z,7504
2017-08-04T05:36:06.781Z,6396
2017-08-04T05:37:09.228Z,6408
2017-08-04T05:38:11.684Z,6356
2017-08-04T05:39:14.176Z,6444
2017-08-04T05:40:16.958Z,6084
2017-08-04T05:41:19.409Z,6416
2017-08-04T05:42:22.204Z,6800
2017-08-04T05:43:24.639Z,6496
2017-08-04T05:44:27.093Z,7888
2017-08-04T05:45:29.877Z,8068
2017-08-04T05:46:32.336Z,10168
2017-08-04T05:47:35.126Z,11664
2017-08-04T05:48:37.917Z,10716
2017-08-04T05:49:40.714Z,10536
2017-08-04T05:50:43.180Z,11572
2017-08-04T05:51:45.715Z,13220
2017-08-04T05:52:48.178Z,14156
2017-08-04T05:53:50.960Z,14128
2017-08-04T05:54:53.415Z,12844
2017-08-04T05:55:56.205Z,11716
2017-08-04T05:56:58.667Z,10688
2017-08-04T05:58:01.453Z,10396
2017-08-04T05:59:04.595Z,10520
2017-08-04T06:00:07.387Z,10496
2017-08-04T06:01:10.204Z,10464
2017-08-04T06:02:13.352Z,11564
2017-08-04T06:03:15.806Z,12436
2017-08-04T06:04:18.581Z,11440
2017-08-04T06:05:21.034Z,11416
2017-08-04T06:06:23.483Z,11056
2017-08-04T06:07:25.941Z,11140
2017-08-04T06:08:28.386Z,11268
2017-08-04T06:09:30.838Z,11856
2017-08-04T06:10:33.680Z,12564
2017-08-04T06:11:36.132Z,13228
2017-08-04T06:12:38.588Z,14100
2017-08-04T06:13:41.393Z,14272
2017-08-04T06:14:43.854Z,14192
2017-08-04T06:15:46.315Z,13624
2017-08-04T06:16:48.760Z,12588
2017-08-04T06:17:51.555Z,11508
2017-08-04T06:18:54.007Z,10828
2017-08-04T06:19:56.804Z,10408
2017-08-04T06:20:59.256Z,10144
2017-08-04T06:22:01.706Z,9680
2017-08-04T06:23:05.879Z,9492
2017-08-04T06:24:08.349Z,10608
2017-08-04T06:25:11.141Z,12028
2017-08-04T06:26:13.961Z,13240
2017-08-04T06:27:16.757Z,15492
2017-08-04T06:28:19.559Z,16224
2017-08-04T06:29:22.015Z,16448
2017-08-04T06:30:24.465Z,15804
2017-08-04T06:31:26.907Z,16012
2017-08-04T06:32:29.375Z,16704
2017-08-04T06:33:31.818Z,16784
2017-08-04T06:34:34.275Z,15932
2017-08-04T06:35:37.081Z,15356
2017-08-04T06:36:39.532Z,15040
2017-08-04T06:37:41.988Z,14376
2017-08-04T06:38:44.445Z,13956
2017-08-04T06:39:46.892Z,13388
2017-08-04T06:40:49.341Z,12952
2017-08-04T06:41:52.139Z,12860
2017-08-04T06:42:54.586Z,12900
2017-08-04T06:43:57.041Z,13252
2017-08-04T06:44:59.503Z,14060
2017-08-04T06:46:01.970Z,15676
2017-08-04T06:47:04.430Z,16968
2017-08-04T06:48:06.894Z,18464
2017-08-04T06:49:10.355Z,17776
2017-08-04T06:50:12.810Z,18560
2017-08-04T06:51:15.295Z,17216
2017-08-04T06:52:17.765Z,16620
2017-08-04T06:53:20.910Z,15748
2017-08-04T06:54:24.398Z,14924
2017-08-04T06:55:26.842Z,12852
2017-08-04T06:56:29.319Z,11584
2017-08-04T06:57:32.105Z,12384
2017-08-04T06:58:34.540Z,13164
2017-08-04T06:59:36.996Z,13000
2017-08-04T07:00:39.458Z,12416
2017-08-04T07:01:42.598Z,11860
2017-08-04T07:02:45.052Z,12072
2017-08-04T07:03:47.494Z,12496
2017-08-04T07:04:49.953Z,13020
2017-08-04T07:05:52.768Z,14156
2017-08-04T07:06:55.230Z,16612
2017-08-04T07:07:57.694Z,17712
2017-08-04T07:09:00.169Z,18592
2017-08-04T07:10:02.630Z,19072
2017-08-04T07:11:05.775Z,17960
2017-08-04T07:12:08.243Z,17568
2017-08-04T07:13:10.711Z,16836
2017-08-04T07:14:13.506Z,16460
2017-08-04T07:15:15.980Z,16188
2017-08-04T07:16:18.785Z,16400
2017-08-04T07:17:21.230Z,16756
2017-08-04T07:18:23.693Z,17780
2017-08-04T07:19:26.134Z,18880
2017-08-04T07:20:28.598Z,18656
2017-08-04T07:21:31.406Z,17804
2017-08-04T07:22:33.855Z,17532
2017-08-04T07:23:36.323Z,17872
2017-08-04T07:24:38.795Z,17604
2017-08-04T07:25:41.591Z,17728
2017-08-04T07:26:44.405Z,18204
2017-08-04T07:27:46.863Z,19360
2017-08-04T07:28:49.309Z,19776
2017-08-04T07:29:52.107Z,19680
2017-08-04T07:30:54.562Z,19104
2017-08-04T07:31:57.344Z,18976
2017-08-04T07:32:59.810Z,18264
2017-08-04T07:34:02.266Z,17800
2017-08-04T07:35:05.064Z,17948
2017-08-04T07:36:08.211Z,19328
2017-08-04T07:37:10.662Z,21120
2017-08-04T07:38:13.108Z,20864
2017-08-04T07:39:15.921Z,22624
2017-08-04T07:40:18.361Z,22848
2017-08-04T07:41:20.807Z,23104
2017-08-04T07:42:23.256Z,23456
2017-08-04T07:43:25.734Z,22880
2017-08-04T07:44:28.191Z,22624
2017-08-04T07:45:30.653Z,21504
2017-08-04T07:46:33.104Z,21984
2017-08-04T07:47:35.552Z,22528
2017-08-04T07:48:38.345Z,21632
2017-08-04T07:49:40.800Z,20352
2017-08-04T07:50:43.585Z,19744
2017-08-04T07:51:46.389Z,19680
2017-08-04T07:52:49.520Z,18068
2017-08-04T07:53:52.310Z,17596
2017-08-04T07:54:54.757Z,17928
2017-08-04T07:55:57.556Z,18848
2017-08-04T07:57:00.009Z,19264
2017-08-04T07:58:03.147Z,18472
2017-08-04T07:59:05.615Z,19168
2017-08-04T08:00:08.063Z,17924
2017-08-04T08:01:10.905Z,21344
2017-08-04T08:02:13.363Z,24800
2017-08-04T08:03:15.827Z,26816
2017-08-04T08:04:18.630Z,25696
2017-08-04T08:05:21.080Z,28256
2017-08-04T08:06:23.543Z,27616
2017-08-04T08:07:25.988Z,29376
2017-08-04T08:08:28.443Z,29088
2017-08-04T08:09:31.251Z,27872
2017-08-04T08:10:33.717Z,26176
2017-08-04T08:11:36.521Z,26144
2017-08-04T08:12:38.982Z,26880
2017-08-04T08:13:41.458Z,29568
2017-08-04T08:14:43.936Z,31904
2017-08-04T08:15:46.737Z,30720
2017-08-04T08:16:49.193Z,30240
2017-08-04T08:17:51.641Z,29312
2017-08-04T08:18:54.087Z,30016
2017-08-04T08:19:56.544Z,28128
2017-08-04T08:20:59.000Z,31904
2017-08-04T08:22:01.441Z,32192
2017-08-04T08:23:04.245Z,30880
2017-08-04T08:24:06.694Z,30336
2017-08-04T08:25:09.196Z,29984
2017-08-04T08:26:11.650Z,29600
2017-08-04T08:27:14.143Z,29952
2017-08-04T08:28:16.910Z,30240
2017-08-04T08:29:20.078Z,30944
2017-08-04T08:30:23.208Z,29888
2017-08-04T08:31:25.673Z,30208
2017-08-04T08:32:28.140Z,32224
2017-08-04T08:33:30.600Z,37376
2017-08-04T08:34:33.393Z,37376
2017-08-04T08:35:35.840Z,35744
2017-08-04T08:36:38.620Z,37152
2017-08-04T08:37:41.087Z,39424
2017-08-04T08:38:43.544Z,38240
2017-08-04T08:39:46.010Z,38592
2017-08-04T08:40:48.453Z,38016
2017-08-04T08:41:50.918Z,42816
2017-08-04T08:42:53.379Z,41376
2017-08-04T08:43:55.837Z,39424
2017-08-04T08:44:58.623Z,41440
2017-08-04T08:46:01.090Z,42176
2017-08-04T08:47:03.877Z,38208
2017-08-04T08:48:06.683Z,33216
2017-08-04T08:49:09.143Z,34912
2017-08-04T08:50:11.600Z,35456
2017-08-04T08:51:14.391Z,35968
2017-08-04T08:52:16.842Z,38496
2017-08-04T08:53:19.300Z,37536
2017-08-04T08:54:22.103Z,30752
2017-08-04T08:55:24.882Z,35936
2017-08-04T08:56:27.679Z,43328
2017-08-04T08:57:30.486Z,35936
2017-08-04T08:58:33.281Z,46944
2017-08-04T08:59:35.816Z,47872
2017-08-04T09:00:38.282Z,48672
2017-08-04T09:01:40.720Z,46272
2017-08-04T09:02:43.197Z,47008
2017-08-04T09:03:45.986Z,67776
2017-08-04T09:04:48.436Z,60640
2017-08-04T09:05:50.893Z,50976
2017-08-04T09:06:53.352Z,66688
2017-08-04T09:07:56.166Z,61568
2017-08-04T09:08:58.611Z,62080
2017-08-04T09:10:01.086Z,58240
2017-08-04T09:11:03.899Z,60800
2017-08-04T09:12:07.016Z,64320
2017-08-04T09:13:09.479Z,88608
2017-08-04T09:14:11.923Z,96640
2017-08-04T09:15:14.373Z,88992
2017-08-04T09:16:16.828Z,94976
2017-08-04T09:17:19.268Z,106336
2017-08-04T09:18:21.726Z,95936
2017-08-04T09:19:24.192Z,84704
2017-08-04T09:20:27.325Z,104608
2017-08-04T09:21:30.130Z,67936
2017-08-04T09:22:32.582Z,70080
2017-08-04T09:23:35.045Z,84320
2017-08-04T09:24:37.507Z,92416
2017-08-04T09:25:39.971Z,112704
2017-08-04T09:26:42.772Z,93184
2017-08-04T09:27:45.575Z,128544
2017-08-04T09:28:48.043Z,121344
2017-08-04T09:29:50.493Z,113312
2017-08-04T09:30:53.302Z,120480
2017-08-04T09:31:56.106Z,121888
2017-08-04T09:32:58.571Z,116608
2017-08-04T09:34:01.032Z,114400
2017-08-04T09:35:04.192Z,30432
2017-08-04T09:36:07.399Z,61472
2017-08-04T09:37:09.855Z,113312
2017-08-04T09:38:12.684Z,125632
2017-08-04T09:39:15.153Z,88896
2017-08-04T09:40:17.612Z,108928
2017-08-04T09:41:20.087Z,101760
2017-08-04T09:42:22.902Z,89376
2017-08-04T09:43:25.355Z,158720
2017-08-04T09:44:27.817Z,146976
2017-08-04T09:45:30.284Z,114208
2017-08-04T09:46:32.739Z,24096
2017-08-04T09:47:35.224Z,32192
2017-08-04T09:48:37.687Z,21536
2017-08-04T09:49:40.493Z,18116
2017-08-04T09:50:42.951Z,24096
2017-08-04T09:51:45.408Z,150784
2017-08-04T09:52:47.868Z,148032
2017-08-04T09:53:50.352Z,40352
2017-08-04T09:54:52.806Z,32512
2017-08-04T09:55:55.602Z,51072
2017-08-04T09:56:58.072Z,105376
2017-08-04T09:58:00.538Z,37632
2017-08-04T09:59:03.005Z,127808
2017-08-04T10:00:05.484Z,24512
2017-08-04T10:01:08.272Z,25664
2017-08-04T10:02:11.436Z,27808
2017-08-04T10:03:13.902Z,25536
2017-08-04T10:04:16.351Z,151488
2017-08-04T10:05:18.816Z,25920
2017-08-04T10:06:21.621Z,31936
2017-08-04T10:07:24.420Z,151136
2017-08-04T10:08:27.206Z,151584
2017-08-04T10:09:29.690Z,138848
2017-08-04T10:10:32.485Z,129120
2017-08-04T10:11:35.304Z,153696
2017-08-04T10:12:38.108Z,47872
2017-08-04T10:13:40.556Z,142080
2017-08-04T10:14:43.010Z,54144
2017-08-04T10:15:46.160Z,26592
2017-08-04T10:16:48.619Z,17936
2017-08-04T10:17:51.077Z,15388
2017-08-04T10:18:53.548Z,13604
2017-08-04T10:19:56.007Z,15104
2017-08-04T10:20:58.464Z,24608
2017-08-04T10:22:01.266Z,67232
2017-08-04T10:23:04.063Z,64032
2017-08-04T10:24:06.861Z,146624
2017-08-04T10:25:09.319Z,46528
2017-08-04T10:26:12.117Z,24864
2017-08-04T10:27:14.604Z,24992
2017-08-04T10:28:17.078Z,138368
2017-08-04T10:29:19.540Z,161216
2017-08-04T10:30:21.986Z,37120
2017-08-04T10:31:24.446Z,41536
2017-08-04T10:32:26.905Z,42592
2017-08-04T10:33:29.375Z,153184
2017-08-04T10:34:31.838Z,85824
2017-08-04T10:35:34.279Z,156096
2017-08-04T10:36:36.743Z,25632
2017-08-04T10:37:39.220Z,19648
2017-08-04T10:38:42.012Z,22272
2017-08-04T10:39:44.473Z,43008
2017-08-04T10:40:46.947Z,135648
2017-08-04T10:41:49.426Z,26016
2017-08-04T10:42:51.871Z,18028
2017-08-04T10:43:54.342Z,12124
2017-08-04T10:44:56.819Z,11876
2017-08-04T10:45:59.274Z,13604
2017-08-04T10:47:01.737Z,12700
2017-08-04T10:48:04.192Z,16776
2017-08-04T10:49:06.635Z,18232
2017-08-04T10:50:09.441Z,24160
2017-08-04T10:51:11.909Z,73056
2017-08-04T10:52:14.366Z,35424
2017-08-04T10:53:16.824Z,28064
2017-08-04T10:54:19.632Z,25920
2017-08-04T10:55:22.097Z,22752
2017-08-04T10:56:24.574Z,119008
2017-08-04T10:57:27.037Z,137472
2017-08-04T10:58:29.829Z,145760
2017-08-04T10:59:32.294Z,124832
2017-08-04T11:00:34.758Z,40896
2017-08-04T11:01:37.560Z,55616
2017-08-04T11:02:40.360Z,56480
2017-08-04T11:03:42.817Z,130208
2017-08-04T11:04:46.296Z,134112
2017-08-04T11:05:48.773Z,145696
2017-08-04T11:06:51.236Z,134368
2017-08-04T11:07:54.041Z,127456
2017-08-04T11:08:56.491Z,129056
2017-08-04T11:09:58.961Z,141696
2017-08-04T11:11:01.421Z,128736
2017-08-04T11:12:04.909Z,141120
2017-08-04T11:13:08.378Z,154304
2017-08-04T11:14:11.192Z,162944
2017-08-04T11:15:14.001Z,155904
2017-08-04T11:16:16.818Z,146848
2017-08-04T11:17:19.273Z,140736
2017-08-04T11:18:22.068Z,136512
2017-08-04T11:19:24.871Z,49824
2017-08-04T11:20:27.326Z,29792
2017-08-04T11:21:29.794Z,127392
2017-08-04T11:22:32.593Z,56320
2017-08-04T11:23:35.052Z,129952
2017-08-04T11:24:37.890Z,82976
2017-08-04T11:25:41.058Z,142720
2017-08-04T11:26:43.860Z,144736
2017-08-04T11:27:46.340Z,144256
2017-08-04T11:28:48.809Z,145056
2017-08-04T11:29:51.277Z,148384
2017-08-04T11:30:54.097Z,144672
2017-08-04T11:31:56.561Z,131360
2017-08-04T11:32:59.014Z,128000
2017-08-04T11:34:01.828Z,126592
2017-08-04T11:35:04.286Z,141984
2017-08-04T11:36:07.087Z,146880
2017-08-04T11:37:09.575Z,136480
2017-08-04T11:38:13.070Z,105216
2017-08-04T11:39:15.535Z,97792
2017-08-04T11:40:17.993Z,121472
2017-08-04T11:41:20.470Z,20128
2017-08-04T11:42:22.934Z,27936
2017-08-04T11:43:25.420Z,151200
2017-08-04T11:44:27.894Z,25248
2017-08-04T11:45:30.708Z,142208
2017-08-04T11:46:33.912Z,132032
2017-08-04T11:47:36.775Z,111712
2017-08-04T11:48:39.285Z,118016
2017-08-04T11:49:41.813Z,26976
2017-08-04T11:50:45.037Z,22240
2017-08-04T11:51:47.890Z,25792
2017-08-04T11:52:50.741Z,33088
2017-08-04T11:53:53.264Z,60544
2017-08-04T11:54:55.809Z,157600
2017-08-04T11:55:58.343Z,60032
2017-08-04T11:57:00.839Z,160416
2017-08-04T11:58:04.031Z,32864
2017-08-04T11:59:06.909Z,144768
2017-08-04T12:00:09.762Z,32800
2017-08-04T12:01:12.292Z,148544
2017-08-04T12:02:14.815Z,136640
2017-08-04T12:03:17.662Z,147008
2017-08-04T12:04:20.517Z,139328
2017-08-04T12:05:23.368Z,32352
2017-08-04T12:06:25.873Z,21792
2017-08-04T12:07:28.383Z,22976
2017-08-04T12:08:30.901Z,26912
2017-08-04T12:09:33.411Z,26336
2017-08-04T12:10:35.908Z,28288
2017-08-04T12:11:38.433Z,41472
2017-08-04T12:12:40.941Z,45344
2017-08-04T12:13:43.784Z,36320
2017-08-04T12:14:46.969Z,37696
2017-08-04T12:15:49.793Z,136448
2017-08-04T12:16:52.682Z,33536
2017-08-04T12:17:55.205Z,125984
2017-08-04T12:18:58.053Z,141248
2017-08-04T12:20:00.561Z,134240
2017-08-04T12:21:03.413Z,127776
2017-08-04T12:22:05.920Z,129632
2017-08-04T12:23:08.808Z,37376
2017-08-04T12:24:11.994Z,123872
2017-08-04T12:25:14.844Z,128960
2017-08-04T12:26:17.353Z,68640
2017-08-04T12:27:20.217Z,32224
2017-08-04T12:28:22.738Z,131008
2017-08-04T12:29:25.273Z,136800
2017-08-04T12:30:28.110Z,29344
2017-08-04T12:31:31.319Z,27488
2017-08-04T12:32:33.843Z,71840
2017-08-04T12:33:36.337Z,31392
2017-08-04T12:34:38.843Z,34400
2017-08-04T12:35:41.679Z,61440
2017-08-04T12:36:44.189Z,52992
2017-08-04T12:37:46.691Z,52768
2017-08-04T12:38:49.203Z,32544
2017-08-04T12:39:51.730Z,29184
2017-08-04T12:40:54.228Z,56256
2017-08-04T12:41:57.424Z,54272
2017-08-04T12:42:59.939Z,34496
2017-08-04T12:44:02.432Z,33952
2017-08-04T12:45:05.271Z,43104
2017-08-04T12:46:08.483Z,84160
2017-08-04T12:47:11.343Z,138368
2017-08-04T12:48:13.871Z,136416
2017-08-04T12:49:16.738Z,126688
2017-08-04T12:50:19.237Z,127776
2017-08-04T12:51:22.077Z,131136
2017-08-04T12:52:24.917Z,128160
2017-08-04T12:53:27.760Z,30880
2017-08-04T12:54:30.276Z,138592
2017-08-04T12:55:32.782Z,141216
2017-08-04T12:56:35.935Z,40576
2017-08-04T12:57:38.465Z,29536
2017-08-04T12:58:41.299Z,39392
2017-08-04T12:59:43.798Z,35712
2017-08-04T13:00:46.310Z,32032
2017-08-04T13:01:49.320Z,50688
2017-08-04T13:02:51.846Z,42272
2017-08-04T13:03:54.783Z,37792
2017-08-04T13:05:00.503Z,67296
2017-08-04T13:06:05.390Z,37728
2017-08-04T13:07:11.382Z,41632
2017-08-04T13:08:17.963Z,39296
2017-08-04T13:09:20.463Z,42944
2017-08-04T13:10:23.993Z,35872
2017-08-04T13:11:26.480Z,31424
2017-08-04T13:12:29.327Z,103552
2017-08-04T13:13:32.206Z,51872
2017-08-04T13:14:34.706Z,39744
2017-08-04T13:15:37.232Z,34624
2017-08-04T13:16:39.760Z,33824
2017-08-04T13:17:42.326Z,37824
2017-08-04T13:18:44.851Z,132704
2017-08-04T13:19:48.061Z,139104
2017-08-04T13:20:50.934Z,37888
2017-08-04T13:21:53.909Z,44000
2017-08-04T13:22:56.421Z,55200
2017-08-04T13:23:58.948Z,36704
2017-08-04T13:25:01.492Z,36448
2017-08-04T13:26:04.699Z,131520
2017-08-04T13:27:07.238Z,123424
2017-08-04T13:28:09.764Z,136064
2017-08-04T13:29:12.270Z,130752
2017-08-04T13:30:15.118Z,112576
2017-08-04T13:31:18.003Z,119584
2017-08-04T13:32:20.502Z,119072
2017-08-04T13:33:23.051Z,20352
2017-08-04T13:34:25.585Z,134240
2017-08-04T13:35:28.126Z,45408
2017-08-04T13:36:30.642Z,21888
2017-08-04T13:37:33.182Z,31552
2017-08-04T13:38:35.682Z,30272
2017-08-04T13:39:38.537Z,19840
2017-08-04T13:40:41.047Z,20992
2017-08-04T13:41:43.583Z,27936
2017-08-04T13:42:46.110Z,104864
2017-08-04T13:43:48.971Z,131808
2017-08-04T13:44:51.497Z,128096
2017-08-04T13:45:54.029Z,125056
2017-08-04T13:46:56.537Z,106464
2017-08-04T13:47:59.389Z,95136
2017-08-04T13:49:01.906Z,109792
2017-08-04T13:50:04.790Z,115904
2017-08-04T13:51:07.320Z,110272
2017-08-04T13:52:10.500Z,108576
2017-08-04T13:53:14.051Z,96320
2017-08-04T13:54:16.589Z,93664